Time;durP1;ratioP1;P1;durP2;ratioP2;P2;SDS_P1;SDS_P2;PMS_P1;PMS_P2;Temp;Humidity;BMP_temperature;BMP_pressure;BME280_temperature;BME280_humidity;BME280_pressure;Samples;Min_cycle;Max_cycle;Signal;HPM_P1;HPM_P2
2023/06/27 00:00:13;;;;;;;4.18;1.40;;;15.20;99.90;;;;;;4997042;28;20029;-64
2023/06/27 00:02:40;;;;;;;5.68;1.10;;;15.20;99.90;;;;;;4999140;28;20060;-65
2023/06/27 00:05:06;;;;;;;2.75;1.27;;;15.20;99.90;;;;;;4995459;28;20073;-64
2023/06/27 00:07:31;;;;;;;3.22;1.48;;;15.20;99.90;;;;;;4999106;28;20451;-64
2023/06/27 00:09:57;;;;;;;2.90;1.10;;;15.10;99.90;;;;;;4997497;28;20040;-65
2023/06/27 00:12:23;;;;;;;3.10;1.50;;;15.10;99.90;;;;;;4998348;28;20046;-64
2023/06/27 00:14:49;;;;;;;2.33;1.10;;;15.10;99.90;;;;;;5000480;28;20049;-64
2023/06/27 00:17:16;;;;;;;5.68;1.20;;;15.10;99.90;;;;;;5002689;28;20034;-64
2023/06/27 00:19:45;;;;;;;2.17;1.13;;;15.00;99.90;;;;;;4997276;28;20084;-65
2023/06/27 00:22:11;;;;;;;2.22;1.20;;;15.00;99.90;;;;;;4996555;28;20054;-65
2023/06/27 00:24:37;;;;;;;2.20;1.13;;;14.90;99.90;;;;;;4996296;28;20057;-65
2023/06/27 00:27:04;;;;;;;3.35;1.50;;;14.90;99.90;;;;;;4994975;28;20034;-64
2023/06/27 00:29:29;;;;;;;3.33;1.67;;;14.90;99.90;;;;;;4999459;28;20076;-65
2023/06/27 00:31:55;;;;;;;1.90;1.23;;;14.80;99.90;;;;;;4997398;28;20030;-65
2023/06/27 00:34:21;;;;;;;3.03;1.88;;;14.90;99.90;;;;;;5003288;28;20114;-64
2023/06/27 00:36:47;;;;;;;6.28;1.25;;;14.80;99.90;;;;;;4996736;28;20105;-64
2023/06/27 00:39:13;;;;;;;1.40;1.00;;;14.80;99.90;;;;;;4996849;28;20041;-64
2023/06/27 00:41:39;;;;;;;4.32;1.50;;;14.80;99.90;;;;;;4996888;28;20029;-64
2023/06/27 00:44:07;;;;;;;7.47;1.55;;;14.80;99.90;;;;;;4992368;28;20041;-64
2023/06/27 00:46:39;;;;;;;4.47;1.60;;;14.70;99.90;;;;;;4993778;28;20018;-64
2023/06/27 00:49:10;;;;;;;3.78;1.40;;;14.70;99.90;;;;;;4996565;28;20403;-64
2023/06/27 00:51:38;;;;;;;3.08;1.60;;;14.70;99.90;;;;;;4995390;28;20121;-64
2023/06/27 00:54:03;;;;;;;2.15;1.00;;;14.70;99.90;;;;;;4992872;28;20022;-64
2023/06/27 00:56:29;;;;;;;3.15;1.30;;;14.70;99.90;;;;;;4994613;28;20550;-64
2023/06/27 00:58:59;;;;;;;5.60;1.00;;;14.60;99.90;;;;;;4995815;28;20026;-64
2023/06/27 01:01:25;;;;;;;4.00;1.05;;;14.60;99.90;;;;;;4999585;28;20026;-64
2023/06/27 01:03:51;;;;;;;2.70;1.23;;;14.60;99.90;;;;;;4992182;28;20046;-64
2023/06/27 01:06:30;;;;;;;4.88;1.20;;;14.60;99.90;;;;;;4996142;28;20042;-64
2023/06/27 01:09:06;;;;;;;2.60;1.17;;;14.70;99.90;;;;;;5003505;28;20041;-65
2023/06/27 01:11:46;;;;;;;3.42;1.35;;;14.60;99.90;;;;;;5002172;28;20152;-64
2023/06/27 01:14:16;;;;;;;5.35;1.23;;;14.60;99.90;;;;;;5005865;28;20456;-64
2023/06/27 01:16:45;;;;;;;3.78;1.23;;;14.60;99.90;;;;;;4997384;28;20061;-64
2023/06/27 01:19:12;;;;;;;2.90;1.27;;;14.60;99.90;;;;;;5000237;28;20030;-64
2023/06/27 01:21:39;;;;;;;3.33;1.67;;;14.60;99.90;;;;;;5000108;28;20054;-65
2023/06/27 01:24:07;;;;;;;2.58;1.45;;;14.60;99.90;;;;;;4999658;28;20050;-65
2023/06/27 01:26:33;;;;;;;2.92;1.50;;;14.50;99.90;;;;;;4999852;28;20025;-65
2023/06/27 01:28:59;;;;;;;5.10;1.52;;;14.60;99.90;;;;;;4995807;28;20548;-64
2023/06/27 01:31:52;;;;;;;4.10;1.70;;;14.60;99.90;;;;;;4998472;28;20030;-65
2023/06/27 01:34:46;;;;;;;3.83;1.17;;;14.50;99.90;;;;;;5000669;28;20030;-64
2023/06/27 01:37:21;;;;;;;5.38;1.25;;;14.50;99.90;;;;;;5001988;28;20034;-64
2023/06/27 01:40:08;;;;;;;3.05;1.30;;;14.50;99.90;;;;;;5005377;28;20057;-65
2023/06/27 01:42:42;;;;;;;4.95;1.60;;;14.50;99.90;;;;;;5001441;28;21540;-66
2023/06/27 01:45:09;;;;;;;4.95;1.60;;;14.40;99.90;;;;;;5000953;28;20446;-64
2023/06/27 01:47:38;;;;;;;2.25;1.27;;;14.40;99.90;;;;;;5004540;28;20038;-64
2023/06/27 01:50:04;;;;;;;3.55;1.10;;;14.30;99.90;;;;;;5007749;28;20045;-64
2023/06/27 01:52:29;;;;;;;2.72;1.17;;;14.30;99.90;;;;;;5001586;28;20026;-64
2023/06/27 01:54:56;;;;;;;3.72;1.10;;;14.30;99.90;;;;;;5011464;28;20032;-65
2023/06/27 01:57:21;;;;;;;2.75;1.25;;;14.30;99.90;;;;;;5005911;28;20036;-64
2023/06/27 01:59:47;;;;;;;2.45;1.20;;;14.30;99.90;;;;;;5008721;28;20026;-64
2023/06/27 02:02:13;;;;;;;2.38;1.38;;;14.30;99.90;;;;;;5004829;28;20135;-64
2023/06/27 02:04:38;;;;;;;5.88;1.90;;;14.30;99.90;;;;;;5011402;28;20030;-64
2023/06/27 02:07:04;;;;;;;2.63;1.30;;;14.30;99.90;;;;;;5008120;28;20042;-64
2023/06/27 02:09:30;;;;;;;2.90;1.30;;;14.30;99.90;;;;;;5011436;28;20029;-64
2023/06/27 02:11:55;;;;;;;3.00;1.13;;;14.40;99.90;;;;;;5012698;28;20522;-64
2023/06/27 02:14:21;;;;;;;2.42;1.42;;;14.40;99.90;;;;;;5010196;28;20033;-64
2023/06/27 02:16:46;;;;;;;3.60;1.50;;;14.40;99.90;;;;;;5012005;28;20499;-64
2023/06/27 02:19:12;;;;;;;3.90;1.23;;;14.30;99.90;;;;;;5007333;28;20022;-65
2023/06/27 02:21:37;;;;;;;3.50;1.50;;;14.20;99.90;;;;;;5011478;28;20018;-64
2023/06/27 02:24:03;;;;;;;2.88;1.65;;;14.20;99.90;;;;;;5008643;28;20092;-64
2023/06/27 02:26:29;;;;;;;4.40;1.45;;;14.10;99.90;;;;;;5008579;28;20017;-64
2023/06/27 02:28:54;;;;;;;3.20;1.40;;;14.00;99.90;;;;;;5011116;28;20030;-65
2023/06/27 02:31:20;;;;;;;4.47;1.58;;;14.00;99.90;;;;;;4985674;28;20054;-64
2023/06/27 02:33:46;;;;;;;4.20;1.30;;;13.90;99.90;;;;;;5006140;28;20669;-64
2023/06/27 02:36:12;;;;;;;2.20;1.77;;;13.90;99.90;;;;;;5026348;28;20018;-64
2023/06/27 02:38:38;;;;;;;3.28;1.65;;;13.80;99.90;;;;;;5011664;28;20072;-64
2023/06/27 02:41:03;;;;;;;5.90;1.20;;;13.80;99.90;;;;;;5012167;28;20026;-64
2023/06/27 02:43:29;;;;;;;4.75;1.33;;;13.80;99.90;;;;;;5012412;28;20018;-64
2023/06/27 02:45:55;;;;;;;3.00;1.33;;;13.70;99.90;;;;;;5008228;28;20060;-66
2023/06/27 02:48:20;;;;;;;4.65;1.55;;;13.70;99.90;;;;;;5009211;28;20057;-64
2023/06/27 02:50:49;;;;;;;10.25;1.52;;;13.60;99.90;;;;;;5010885;28;20059;-64
2023/06/27 02:53:15;;;;;;;4.03;1.58;;;13.60;99.90;;;;;;5010529;28;20541;-64
2023/06/27 02:55:41;;;;;;;3.25;1.50;;;13.50;99.90;;;;;;5009561;28;20060;-64
2023/06/27 02:58:06;;;;;;;4.13;1.45;;;13.50;99.90;;;;;;5007679;28;20475;-64
2023/06/27 03:00:32;;;;;;;4.40;1.30;;;13.50;99.90;;;;;;5008449;28;20087;-64
2023/06/27 03:02:58;;;;;;;6.07;1.80;;;13.50;99.90;;;;;;5010557;28;20029;-64
2023/06/27 03:05:23;;;;;;;5.13;1.33;;;13.50;99.90;;;;;;5009976;28;20033;-64
2023/06/27 03:07:49;;;;;;;10.65;1.58;;;13.50;99.90;;;;;;5008350;28;20056;-64
2023/06/27 03:10:14;;;;;;;1.98;1.25;;;13.60;99.90;;;;;;5009659;28;20128;-64
2023/06/27 03:12:40;;;;;;;5.70;1.67;;;13.60;99.90;;;;;;5010349;28;20022;-64
2023/06/27 03:15:06;;;;;;;6.60;1.33;;;13.60;99.90;;;;;;5006435;28;20087;-64
2023/06/27 03:17:32;;;;;;;7.72;1.80;;;13.60;99.90;;;;;;5008350;28;20052;-64
2023/06/27 03:19:58;;;;;;;3.28;1.33;;;13.70;99.90;;;;;;5010314;28;20022;-64
2023/06/27 03:22:23;;;;;;;5.25;1.25;;;13.70;99.90;;;;;;4998422;28;20026;-66
2023/06/27 03:24:49;;;;;;;3.67;1.35;;;13.70;99.90;;;;;;5007551;28;20033;-64
2023/06/27 03:27:17;;;;;;;5.30;2.00;;;13.70;99.90;;;;;;5002450;28;20504;-64
2023/06/27 03:29:43;;;;;;;2.00;1.38;;;13.70;99.90;;;;;;5008397;28;20048;-64
2023/06/27 03:32:10;;;;;;;3.55;1.58;;;13.80;99.90;;;;;;5005507;28;20026;-65
2023/06/27 03:34:36;;;;;;;2.75;1.63;;;13.70;99.90;;;;;;5009639;28;20511;-64
2023/06/27 03:37:02;;;;;;;6.05;2.28;;;13.80;99.90;;;;;;5009616;28;20030;-65
2023/06/27 03:39:28;;;;;;;2.95;1.40;;;13.80;99.90;;;;;;5009530;28;20029;-64
2023/06/27 03:41:54;;;;;;;1.85;1.20;;;13.90;99.90;;;;;;5011021;28;20494;-64
2023/06/27 03:44:19;;;;;;;6.03;2.13;;;13.90;99.90;;;;;;5005264;28;20026;-64
2023/06/27 03:46:45;;;;;;;6.40;1.52;;;13.90;99.90;;;;;;5009463;28;20034;-65
2023/06/27 03:49:11;;;;;;;4.70;1.33;;;13.90;99.90;;;;;;5005066;28;20026;-64
2023/06/27 03:51:39;;;;;;;3.70;1.48;;;13.90;99.90;;;;;;5011681;28;20112;-64
2023/06/27 03:54:06;;;;;;;2.50;1.52;;;14.00;99.90;;;;;;5007046;28;20084;-65
2023/06/27 03:56:32;;;;;;;2.47;1.30;;;14.00;99.90;;;;;;5005251;28;20026;-64
2023/06/27 03:58:58;;;;;;;8.05;1.80;;;14.00;99.90;;;;;;5010389;28;20033;-65
2023/06/27 04:01:24;;;;;;;3.35;1.88;;;14.00;99.90;;;;;;5005458;28;20033;-64
2023/06/27 04:03:49;;;;;;;4.38;1.60;;;14.10;99.90;;;;;;5009438;28;20053;-64
2023/06/27 04:06:15;;;;;;;3.33;1.38;;;14.10;99.90;;;;;;5004456;28;20027;-64
2023/06/27 04:08:40;;;;;;;2.72;1.20;;;14.10;99.90;;;;;;5003697;28;20491;-64
2023/06/27 04:11:06;;;;;;;4.03;1.30;;;14.10;99.90;;;;;;5002273;28;20041;-64
2023/06/27 04:13:31;;;;;;;6.38;1.42;;;14.10;99.90;;;;;;4998052;28;20029;-64
2023/06/27 04:15:57;;;;;;;4.47;1.80;;;14.10;99.90;;;;;;5005799;28;20100;-64
2023/06/27 04:18:22;;;;;;;4.22;1.60;;;14.20;99.90;;;;;;5004166;28;20514;-64
2023/06/27 04:20:48;;;;;;;3.97;1.60;;;14.20;99.90;;;;;;5008520;28;20093;-64
2023/06/27 04:23:14;;;;;;;5.88;1.70;;;14.20;99.90;;;;;;5009138;28;20041;-65
2023/06/27 04:25:43;;;;;;;2.17;1.35;;;14.10;99.90;;;;;;5006458;28;20041;-64
2023/06/27 04:28:09;;;;;;;4.13;1.80;;;14.10;99.90;;;;;;5004208;28;20026;-64
2023/06/27 04:30:34;;;;;;;2.72;1.60;;;14.10;99.90;;;;;;5004745;28;20048;-64
2023/06/27 04:33:02;;;;;;;2.60;1.45;;;14.30;99.90;;;;;;5007762;28;20407;-65
2023/06/27 04:35:28;;;;;;;2.70;1.30;;;14.40;99.90;;;;;;5008244;28;20026;-65
2023/06/27 04:37:54;;;;;;;2.95;1.40;;;14.50;99.90;;;;;;5021648;28;20676;-65
2023/06/27 04:40:20;;;;;;;3.75;1.70;;;14.70;99.90;;;;;;5010386;28;20418;-65
2023/06/27 04:42:46;;;;;;;4.90;2.05;;;14.80;99.90;;;;;;5009304;28;20022;-64
2023/06/27 04:45:12;;;;;;;9.45;1.98;;;15.00;99.90;;;;;;5002811;28;21335;-62
2023/06/27 04:47:38;;;;;;;2.05;1.40;;;15.20;99.90;;;;;;5007234;28;20112;-65
2023/06/27 04:50:04;;;;;;;4.10;1.60;;;15.30;99.90;;;;;;5010010;28;20060;-64
2023/06/27 04:52:30;;;;;;;4.70;1.90;;;15.30;99.90;;;;;;5006809;28;20021;-64
2023/06/27 04:54:55;;;;;;;5.35;1.40;;;15.40;99.90;;;;;;5007841;28;20058;-64
2023/06/27 04:57:21;;;;;;;4.72;1.90;;;15.50;99.90;;;;;;5009067;28;20026;-64
2023/06/27 04:59:47;;;;;;;4.88;1.55;;;15.60;99.90;;;;;;5006890;28;20096;-65
2023/06/27 05:02:12;;;;;;;2.22;1.40;;;15.70;99.90;;;;;;5006724;28;20026;-65
2023/06/27 05:04:38;;;;;;;3.55;1.70;;;15.80;99.90;;;;;;5010008;28;20097;-64
2023/06/27 05:07:06;;;;;;;4.55;2.25;;;15.80;99.90;;;;;;5009578;28;20542;-65
2023/06/27 05:09:32;;;;;;;7.40;3.20;;;15.80;99.90;;;;;;5008647;28;20337;-64
2023/06/27 05:11:57;;;;;;;3.08;1.67;;;15.80;99.90;;;;;;5008057;28;20057;-65
2023/06/27 05:14:24;;;;;;;5.10;1.70;;;15.70;99.90;;;;;;4999581;28;20121;-63
2023/06/27 05:16:50;;;;;;;2.40;1.40;;;15.80;99.90;;;;;;5007253;28;20053;-63
2023/06/27 05:19:15;;;;;;;2.78;1.40;;;15.90;99.90;;;;;;5007885;28;20040;-65
2023/06/27 05:21:41;;;;;;;7.53;1.70;;;15.80;99.90;;;;;;5008228;28;20301;-65
2023/06/27 05:24:07;;;;;;;6.93;1.25;;;15.90;99.90;;;;;;5010692;28;20541;-64
2023/06/27 05:26:33;;;;;;;2.53;1.42;;;16.10;99.90;;;;;;5013266;28;20418;-64
2023/06/27 05:28:59;;;;;;;4.93;1.65;;;16.20;99.90;;;;;;5013091;28;20034;-63
2023/06/27 05:31:26;;;;;;;3.42;1.40;;;16.80;99.90;;;;;;5008302;28;20021;-63
2023/06/27 05:33:52;;;;;;;5.03;1.73;;;17.70;99.90;;;;;;5011071;28;20033;-65
2023/06/27 05:36:18;;;;;;;5.72;1.92;;;18.50;99.90;;;;;;4999294;28;20030;-64
2023/06/27 05:38:43;;;;;;;13.10;1.88;;;19.60;99.90;;;;;;5006537;28;20085;-65
2023/06/27 05:41:09;;;;;;;3.10;1.50;;;20.20;99.50;;;;;;5003254;28;20104;-64
2023/06/27 05:43:35;;;;;;;5.80;2.15;;;20.40;98.20;;;;;;5009646;28;20018;-65
2023/06/27 05:46:01;;;;;;;4.88;1.50;;;20.50;97.90;;;;;;5010010;28;20103;-64
2023/06/27 05:48:26;;;;;;;2.60;1.60;;;20.90;97.50;;;;;;5004639;28;20033;-65
2023/06/27 05:50:52;;;;;;;3.08;1.67;;;22.20;95.10;;;;;;5012448;28;20026;-65
2023/06/27 05:53:17;;;;;;;6.68;1.80;;;23.10;92.40;;;;;;5011148;28;20915;-65
2023/06/27 05:55:43;;;;;;;3.72;1.45;;;23.40;91.90;;;;;;5012079;28;20030;-65
2023/06/27 05:58:08;;;;;;;4.20;1.58;;;24.40;90.20;;;;;;5011272;28;20030;-64
2023/06/27 06:00:34;;;;;;;4.47;1.60;;;24.20;88.00;;;;;;5008059;28;20033;-65
2023/06/27 06:03:00;;;;;;;3.63;1.70;;;24.70;86.10;;;;;;5009579;28;20030;-65
2023/06/27 06:05:25;;;;;;;5.18;2.05;;;24.80;84.90;;;;;;5008531;28;20212;-65
2023/06/27 06:07:51;;;;;;;5.53;2.15;;;25.30;83.30;;;;;;5008416;28;20443;-65
2023/06/27 06:10:16;;;;;;;4.07;1.60;;;25.60;82.30;;;;;;5008688;28;20482;-64
2023/06/27 06:12:43;;;;;;;8.00;1.88;;;26.00;80.80;;;;;;5009321;28;20026;-66
2023/06/27 06:15:09;;;;;;;3.03;1.40;;;26.90;80.20;;;;;;5005244;28;20517;-65
2023/06/27 06:17:35;;;;;;;3.72;1.52;;;27.40;77.30;;;;;;5011117;28;20026;-65
2023/06/27 06:20:01;;;;;;;2.78;1.30;;;27.50;77.50;;;;;;5005492;28;20390;-65
2023/06/27 06:22:26;;;;;;;11.07;1.60;;;27.90;76.70;;;;;;5001606;28;20542;-65
2023/06/27 06:24:52;;;;;;;2.13;1.33;;;29.90;74.70;;;;;;5005249;28;20144;-64
2023/06/27 06:27:17;;;;;;;6.10;2.10;;;29.60;71.30;;;;;;5010399;28;20498;-65
2023/06/27 06:29:43;;;;;;;11.25;2.55;;;29.80;69.70;;;;;;5004279;28;21747;-65
2023/06/27 06:32:08;;;;;;;4.70;2.00;;;29.20;70.50;;;;;;5006920;28;20034;-64
2023/06/27 06:34:34;;;;;;;9.05;2.08;;;29.30;71.00;;;;;;5006709;28;20038;-63
2023/06/27 06:37:00;;;;;;;5.32;1.95;;;29.50;70.40;;;;;;5004356;28;20034;-65
2023/06/27 06:39:25;;;;;;;4.93;2.13;;;30.70;69.20;;;;;;5007291;28;20488;-64
2023/06/27 06:41:51;;;;;;;11.15;2.05;;;29.70;68.20;;;;;;5020145;23;20137;-65
2023/06/27 06:44:17;;;;;;;6.70;2.08;;;29.70;68.50;;;;;;4996144;28;20018;-66
2023/06/27 06:46:43;;;;;;;8.32;2.13;;;29.10;69.90;;;;;;4995088;28;20026;-63
2023/06/27 06:49:09;;;;;;;5.35;2.20;;;29.10;69.60;;;;;;4995229;28;20104;-65
2023/06/27 06:51:35;;;;;;;4.13;1.98;;;29.50;70.20;;;;;;5000900;28;20504;-65
2023/06/27 06:54:00;;;;;;;7.47;1.67;;;29.90;70.00;;;;;;4974749;28;20082;-63
2023/06/27 06:56:26;;;;;;;9.13;2.17;;;30.30;67.80;;;;;;4976141;28;20101;-65
2023/06/27 06:58:51;;;;;;;9.23;2.30;;;30.20;67.60;;;;;;4980872;28;20046;-65
2023/06/27 07:01:18;;;;;;;9.32;2.13;;;29.90;67.40;;;;;;4971762;28;20031;-63
2023/06/27 07:03:43;;;;;;;10.95;2.75;;;29.50;68.70;;;;;;4973708;28;20104;-66
2023/06/27 07:06:09;;;;;;;8.00;2.05;;;30.20;68.00;;;;;;4985410;28;20667;-64
2023/06/27 07:08:34;;;;;;;9.07;1.88;;;29.30;68.20;;;;;;4971301;28;20393;-65
2023/06/27 07:11:00;;;;;;;7.85;2.47;;;29.90;68.80;;;;;;4981825;28;20050;-65
2023/06/27 07:13:25;;;;;;;3.75;2.03;;;30.10;67.50;;;;;;4985551;28;20085;-65
2023/06/27 07:15:51;;;;;;;8.95;2.33;;;30.10;67.30;;;;;;4979251;28;20035;-66
2023/06/27 07:18:16;;;;;;;5.30;1.73;;;30.40;68.20;;;;;;4984176;28;20038;-66
2023/06/27 07:20:42;;;;;;;9.18;1.95;;;30.30;67.10;;;;;;4979682;28;20117;-66
2023/06/27 07:23:08;;;;;;;6.28;2.78;;;31.20;66.40;;;;;;4981126;28;20027;-62
2023/06/27 07:25:35;;;;;;;7.10;1.98;;;31.70;65.40;;;;;;4970877;28;20023;-65
2023/06/27 07:28:01;;;;;;;7.78;2.28;;;31.90;63.80;;;;;;4981696;28;20089;-65
2023/06/27 07:30:26;;;;;;;7.93;2.22;;;30.80;64.90;;;;;;4975576;28;20042;-65
2023/06/27 07:32:52;;;;;;;7.93;2.35;;;30.10;65.90;;;;;;4983655;28;20042;-63
2023/06/27 07:35:17;;;;;;;6.93;2.38;;;30.20;66.40;;;;;;4981222;28;20043;-64
2023/06/27 07:37:43;;;;;;;7.93;2.10;;;30.90;67.90;;;;;;4980822;28;20082;-66
2023/06/27 07:40:09;;;;;;;7.55;1.80;;;30.80;65.10;;;;;;4978894;28;20030;-64
2023/06/27 07:42:35;;;;;;;9.18;2.35;;;30.60;65.50;;;;;;4973932;28;20035;-65
2023/06/27 07:45:00;;;;;;;9.60;2.88;;;30.90;65.60;;;;;;4984629;28;20038;-65
2023/06/27 07:47:26;;;;;;;8.18;2.33;;;31.30;63.80;;;;;;4982881;28;20069;-65
2023/06/27 07:49:51;;;;;;;7.72;2.33;;;31.50;65.40;;;;;;4984407;28;20026;-65
2023/06/27 07:52:17;;;;;;;8.95;2.10;;;31.80;63.60;;;;;;4966864;28;20396;-65
2023/06/27 07:54:42;;;;;;;6.32;1.92;;;32.00;65.20;;;;;;4966063;28;20113;-66
2023/06/27 07:57:08;;;;;;;6.63;1.70;;;31.90;63.20;;;;;;4986164;28;20018;-67
2023/06/27 07:59:34;;;;;;;6.88;2.10;;;32.20;64.00;;;;;;4955780;28;20062;-64
2023/06/27 08:01:59;;;;;;;6.22;2.10;;;32.00;64.40;;;;;;4974580;28;20043;-65
2023/06/27 08:04:25;;;;;;;6.75;2.03;;;32.00;63.70;;;;;;4963983;28;20058;-65
2023/06/27 08:06:50;;;;;;;7.35;2.17;;;32.00;62.60;;;;;;4971610;28;20122;-63
2023/06/27 08:09:16;;;;;;;7.75;2.30;;;31.70;62.70;;;;;;4969365;28;20081;-63
2023/06/27 08:11:42;;;;;;;8.20;2.13;;;30.80;63.80;;;;;;4978360;28;20038;-64
2023/06/27 08:14:07;;;;;;;7.65;1.88;;;31.20;63.60;;;;;;4984192;28;20033;-65
2023/06/27 08:16:33;;;;;;;7.95;1.92;;;31.60;63.40;;;;;;4979036;28;20027;-66
2023/06/27 08:18:59;;;;;;;6.20;1.92;;;31.60;63.50;;;;;;4978615;28;20031;-64
2023/06/27 08:21:25;;;;;;;4.78;2.00;;;31.40;62.40;;;;;;4982378;28;20053;-66
2023/06/27 08:23:51;;;;;;;5.50;1.70;;;31.70;62.40;;;;;;4975072;28;20015;-66
2023/06/27 08:26:17;;;;;;;7.65;2.10;;;31.90;62.00;;;;;;4977541;28;20039;-65
2023/06/27 08:28:44;;;;;;;5.50;1.67;;;31.60;61.70;;;;;;4977230;28;20027;-65
2023/06/27 08:31:11;;;;;;;6.38;2.28;;;30.90;63.70;;;;;;4978663;28;20084;-65
2023/06/27 08:33:37;;;;;;;8.10;1.85;;;30.90;63.90;;;;;;4978077;28;20026;-65
2023/06/27 08:36:02;;;;;;;7.72;1.98;;;31.20;62.50;;;;;;5002742;28;20371;-65
2023/06/27 08:38:28;;;;;;;4.00;1.20;;;31.40;64.70;;;;;;4975944;28;20034;-66
2023/06/27 08:40:54;;;;;;;8.10;1.75;;;30.90;62.50;;;;;;5000765;28;20109;-66
2023/06/27 08:43:20;;;;;;;5.55;1.33;;;30.60;63.80;;;;;;4985485;28;20507;-66
2023/06/27 08:45:48;;;;;;;7.40;1.48;;;30.70;63.80;;;;;;4972097;28;20019;-66
2023/06/27 08:48:16;;;;;;;6.75;2.28;;;30.20;62.90;;;;;;4971659;28;20157;-65
2023/06/27 08:50:42;;;;;;;6.57;1.70;;;29.70;64.60;;;;;;4973400;28;20570;-63
2023/06/27 08:53:17;;;;;;;5.47;1.52;;;29.60;64.60;;;;;;4979908;28;20038;-66
2023/06/27 08:56:00;;;;;;;6.15;1.98;;;29.70;68.70;;;;;;4974423;28;20037;-64
2023/06/27 08:58:30;;;;;;;7.63;1.92;;;29.80;64.90;;;;;;4963366;28;20027;-65
2023/06/27 09:00:56;;;;;;;5.93;1.73;;;29.70;65.70;;;;;;4973959;28;20189;-63
2023/06/27 09:03:22;;;;;;;10.20;1.83;;;29.20;66.30;;;;;;4979737;28;20023;-66
2023/06/27 09:05:48;;;;;;;5.47;2.00;;;29.60;65.50;;;;;;4978012;28;20088;-66
2023/06/27 09:08:13;;;;;;;8.57;2.22;;;29.40;65.20;;;;;;4984055;28;20038;-65
2023/06/27 09:10:44;;;;;;;4.38;1.52;;;30.20;65.20;;;;;;4975085;28;20022;-66
2023/06/27 09:13:10;;;;;;;5.38;1.95;;;29.70;64.70;;;;;;4977294;28;20042;-65
2023/06/27 09:15:36;;;;;;;5.35;1.70;;;28.80;65.30;;;;;;4977325;28;20089;-65
2023/06/27 09:18:01;;;;;;;9.07;1.42;;;28.30;66.10;;;;;;4979235;28;20487;-64
2023/06/27 09:20:27;;;;;;;5.22;1.73;;;28.10;66.90;;;;;;4976632;28;20022;-65
2023/06/27 09:22:55;;;;;;;10.15;1.67;;;27.70;66.10;;;;;;4980799;28;20027;-62
2023/06/27 09:25:24;;;;;;;6.25;1.80;;;27.70;66.20;;;;;;4970992;28;20015;-65
2023/06/27 09:27:50;;;;;;;5.07;1.55;;;27.00;68.00;;;;;;4976913;28;20368;-65
2023/06/27 09:30:16;;;;;;;5.78;1.67;;;26.20;72.00;;;;;;4972636;28;20438;-66
2023/06/27 09:32:59;;;;;;;5.70;1.73;;;26.00;71.50;;;;;;4982111;28;20038;-64
2023/06/27 09:35:26;;;;;;;12.03;1.60;;;25.90;71.50;;;;;;4974696;28;20468;-65
2023/06/27 09:37:53;;;;;;;17.27;2.00;;;26.30;72.00;;;;;;4979122;28;20037;-65
2023/06/27 09:40:21;;;;;;;13.60;1.60;;;26.00;71.20;;;;;;4971772;28;20837;-64
2023/06/27 09:42:53;;;;;;;6.78;1.65;;;26.20;71.80;;;;;;4975007;28;20379;-66
2023/06/27 09:45:19;;;;;;;5.55;1.58;;;26.30;70.70;;;;;;4978428;28;20034;-63
2023/06/27 09:47:49;;;;;;;4.22;1.80;;;26.30;73.70;;;;;;4967461;28;20039;-64
2023/06/27 09:50:15;;;;;;;4.75;1.60;;;25.90;72.50;;;;;;4982416;28;20105;-64
2023/06/27 09:52:51;;;;;;;5.18;1.30;;;25.90;72.90;;;;;;4982703;28;20027;-62
2023/06/27 09:55:18;;;;;;;7.90;1.77;;;26.10;71.60;;;;;;4973683;28;20113;-64
2023/06/27 09:57:44;;;;;;;7.75;1.50;;;26.50;71.00;;;;;;4975668;28;20505;-64
2023/06/27 10:00:11;;;;;;;10.18;1.50;;;26.40;72.80;;;;;;4967072;28;20158;-63
2023/06/27 10:02:37;;;;;;;6.50;1.48;;;26.00;71.70;;;;;;4970688;28;20081;-63
2023/06/27 10:05:03;;;;;;;15.02;2.55;;;25.80;72.10;;;;;;4977169;28;20027;-64
2023/06/27 10:07:32;;;;;;;4.38;1.63;;;25.70;71.70;;;;;;4982896;28;20543;-63
2023/06/27 10:09:58;;;;;;;8.27;1.40;;;25.70;72.30;;;;;;4980446;28;20540;-63
2023/06/27 10:12:24;;;;;;;6.13;1.50;;;26.00;72.90;;;;;;4969892;28;20175;-64
2023/06/27 10:14:50;;;;;;;10.85;1.55;;;26.00;72.80;;;;;;4976309;28;20419;-61
2023/06/27 10:17:19;;;;;;;7.88;1.70;;;25.90;70.30;;;;;;4981664;28;20038;-65
2023/06/27 10:19:45;;;;;;;3.33;1.40;;;26.10;71.80;;;;;;4976733;28;20372;-64
2023/06/27 10:22:15;;;;;;;9.55;1.70;;;26.50;70.40;;;;;;4972759;28;20047;-65
2023/06/27 10:24:44;;;;;;;3.53;1.48;;;27.00;70.20;;;;;;4963139;28;20503;-66
2023/06/27 10:27:13;;;;;;;5.70;1.30;;;27.00;68.80;;;;;;4975660;28;20110;-63
2023/06/27 10:29:42;;;;;;;5.75;1.63;;;27.10;68.40;;;;;;4967991;28;20118;-64
2023/06/27 10:32:14;;;;;;;3.85;1.27;;;27.10;69.80;;;;;;4970610;28;20026;-64
2023/06/27 10:34:44;;;;;;;4.97;1.13;;;27.90;66.90;;;;;;4977833;28;20032;-64
2023/06/27 10:37:26;;;;;;;4.63;1.65;;;27.70;66.40;;;;;;4982552;28;20114;-63
2023/06/27 10:40:10;;;;;;;2.72;0.90;;;27.80;66.80;;;;;;4965957;28;20031;-64
2023/06/27 10:42:35;;;;;;;7.97;1.25;;;27.70;66.60;;;;;;4983989;28;20387;-64
2023/06/27 10:45:08;;;;;;;3.83;1.38;;;27.40;65.60;;;;;;4973692;28;20027;-65
2023/06/27 10:47:41;;;;;;;5.27;0.97;;;26.70;65.40;;;;;;4977082;28;20480;-65
2023/06/27 10:50:15;;;;;;;3.03;1.23;;;26.70;65.30;;;;;;4977068;28;20352;-64
2023/06/27 10:53:04;;;;;;;2.78;0.98;;;26.80;65.50;;;;;;4974489;28;20023;-65
2023/06/27 10:55:31;;;;;;;6.65;1.48;;;27.10;65.40;;;;;;4981689;28;20084;-65
2023/06/27 10:58:02;;;;;;;3.30;1.05;;;26.80;65.90;;;;;;4975023;28;20101;-65
2023/06/27 11:00:31;;;;;;;2.08;1.20;;;26.60;63.50;;;;;;4977021;28;20043;-63
2023/06/27 11:02:58;;;;;;;3.38;1.10;;;27.00;63.40;;;;;;4965619;28;20041;-63
2023/06/27 11:05:43;;;;;;;4.75;1.15;;;26.80;62.70;;;;;;4959963;28;20077;-63
2023/06/27 11:08:12;;;;;;;2.20;1.02;;;26.90;63.20;;;;;;4970029;28;20073;-64
2023/06/27 11:10:49;;;;;;;9.35;1.23;;;26.60;61.80;;;;;;4989893;28;20077;-64
2023/06/27 11:13:18;;;;;;;4.18;1.60;;;26.10;61.70;;;;;;4963074;28;20369;-63
2023/06/27 11:15:45;;;;;;;2.85;0.98;;;26.10;64.40;;;;;;4970159;28;20037;-64
2023/06/27 11:18:15;;;;;;;4.45;0.98;;;26.10;61.60;;;;;;4968787;28;20038;-63
2023/06/27 11:20:45;;;;;;;5.15;1.33;;;26.40;61.80;;;;;;4958112;28;20026;-63
2023/06/27 11:23:13;;;;;;;7.40;1.40;;;26.80;63.10;;;;;;4963965;28;20058;-63
2023/06/27 11:25:42;;;;;;;3.17;1.00;;;27.00;62.50;;;;;;4969778;28;20025;-61
2023/06/27 11:28:08;;;;;;;8.70;1.10;;;27.40;60.50;;;;;;4961382;28;20034;-63
2023/06/27 11:30:35;;;;;;;1.98;1.10;;;27.70;60.60;;;;;;4972287;28;20085;-65
2023/06/27 11:33:02;;;;;;;4.03;0.88;;;27.90;60.00;;;;;;4980406;28;20027;-64
2023/06/27 11:35:30;;;;;;;4.15;1.23;;;28.10;60.50;;;;;;4978039;28;20033;-64
2023/06/27 11:37:56;;;;;;;2.85;1.05;;;28.60;60.20;;;;;;4973126;28;20610;-64
2023/06/27 11:40:23;;;;;;;4.55;1.13;;;28.30;60.00;;;;;;4972094;28;20134;-63
2023/06/27 11:42:49;;;;;;;3.17;1.60;;;27.80;60.30;;;;;;4971014;28;20370;-63
2023/06/27 11:45:15;;;;;;;5.93;1.52;;;27.80;61.30;;;;;;4972456;28;20034;-62
2023/06/27 11:47:40;;;;;;;2.92;1.48;;;27.30;59.90;;;;;;4979010;28;20576;-62
2023/06/27 11:50:11;;;;;;;4.78;1.67;;;27.10;60.80;;;;;;4980861;28;20105;-64
2023/06/27 11:52:37;;;;;;;4.35;1.40;;;26.60;63.20;;;;;;4985620;28;20026;-63
2023/06/27 11:55:05;;;;;;;2.22;0.95;;;26.90;62.90;;;;;;4973531;28;20078;-63
2023/06/27 11:58:00;;;;;;;3.17;1.42;;;26.90;63.60;;;;;;4968580;28;20022;-63
2023/06/27 12:00:31;;;;;;;2.63;1.05;;;27.20;63.00;;;;;;4945671;28;20058;-64
2023/06/27 12:03:03;;;;;;;4.43;1.50;;;27.20;62.60;;;;;;4976715;28;20034;-63
2023/06/27 12:05:28;;;;;;;4.97;1.27;;;27.20;61.90;;;;;;4975704;28;20365;-63
2023/06/27 12:08:03;;;;;;;4.60;1.58;;;27.20;62.50;;;;;;4976566;28;20046;-63
2023/06/27 12:10:32;;;;;;;5.18;1.70;;;26.90;61.00;;;;;;4969534;28;20039;-63
2023/06/27 12:13:04;;;;;;;3.30;1.10;;;26.70;63.70;;;;;;4966193;28;20035;-63
2023/06/27 12:15:43;;;;;;;5.05;1.25;;;27.00;62.40;;;;;;4966080;28;20081;-63
2023/06/27 12:18:10;;;;;;;4.15;1.25;;;27.00;64.00;;;;;;4972217;28;20030;-64
2023/06/27 12:20:44;;;;;;;6.38;1.08;;;27.10;64.50;;;;;;4971981;28;20022;-64
2023/06/27 12:23:10;;;;;;;4.07;1.13;;;26.80;63.90;;;;;;5001951;28;20679;-63
2023/06/27 12:25:38;;;;;;;3.55;1.40;;;26.60;63.20;;;;;;4973786;28;20077;-64
2023/06/27 12:28:03;;;;;;;2.30;1.10;;;26.80;65.60;;;;;;4973282;28;20027;-61
2023/06/27 12:30:29;;;;;;;2.80;1.40;;;26.40;63.70;;;;;;4967992;28;20031;-63
2023/06/27 12:32:54;;;;;;;2.53;1.40;;;26.40;66.20;;;;;;4980383;28;20026;-60
2023/06/27 12:35:20;;;;;;;8.23;1.35;;;26.20;63.90;;;;;;4969382;28;20596;-64
2023/06/27 12:37:46;;;;;;;4.25;1.85;;;26.30;65.70;;;;;;4969515;28;20046;-62
2023/06/27 12:40:12;;;;;;;4.53;1.52;;;26.30;64.90;;;;;;4970237;28;20031;-62
2023/06/27 12:42:39;;;;;;;7.60;1.48;;;26.30;65.80;;;;;;4973643;28;20035;-63
2023/06/27 12:45:05;;;;;;;3.42;1.40;;;26.20;65.10;;;;;;4970462;28;20023;-62